MMTM/TAM METAR and TAF weather

Enter ICAO airport designator
Station Type Date Time Source
MMTM METAR 2021/09/27 03:42 UTC NOAA

MMTM 270342Z 11005KT 10SM SKC 27/23 A3001 RMK CI


Station Type Date Time Source
MMTM Decoded METAR 2021/09/27 03:42 UTC NOAA

Tampico / Gen Fj Mina, Mexico (MMTM) 22-17N 097-52W
Sep 26, 2021 - 11:42 PM EDT / 2021.09.27 0342 UTC
Wind: from the ESE (110 degrees) at 6 MPH (5 KT):0
Visibility: 10 mile(s):0
Sky conditions: clear
Temperature: 80 F (27 C)
Dew Point: 73 F (23 C)
Relative Humidity: 78%
Pressure (altimeter): 30.01 in. Hg (1016 hPa)
ob: MMTM 270342Z 11005KT 10SM SKC 27/23 A3001 RMK CI
cycle: 3

Station Type Date Time Source
MMTM TAF 2021/09/26 13:40 UTC NOAA

TAF
AMD MMTM 261332Z 2613/2706 00000KT P6SM SKC
FM261600 34006KT P6SM SCT015
FM261800 06010KT P6SM SCT020 BKN200
FM270200 09006KT P6SM SCT015

Example: see airport list